PWSweather.com
Personal Weather Stations
Station Observations
TURNER1
South Turner, Turner, ME 04282

South TurnerTurner, ME 04282

Lat: 44.193235, Lon: -70.264886

Elevation: 500

Station Type: Davis Vantage Pro

www.southturnermaineweather.com

High Low Average
Temperature 60.6°F15.9°C 44.8°F7.1°C 53.1°F11.7°C
Dew Point 47.3°F8.5°C 39.5°F4.2°C 42.8°F6.0°C
Winds 10.4 mph 16.7 kmh 2.3 mph 3.7 kmh 6.0 mph WNW9.7 kmh WNW
Wind Gusts 19.6 mph31.5 kmh 3.5 mph5.6 kmh 9.0 mph14.5 kmh
Humidity 91% 47% 70%
Pressure 30.33 in1027.1 mb 30.11 in1019.6 mb -
Precipitation 0.00 in0.0 mm - -
Hour Temp Dew Point Humidity Winds Wind Gusts Pressure Precip Precip Rate Daily Precip Total
12:00 AM 50.4°F10.2°C 43.1°F6.2°C 76% 4.6 mph NNW7.4 kmh NNW 5.8 mph9.3 kmh 30.33 in1027.1 mb - 0.00 in0.0 mm 0.00 in0.0 mm
12:30 AM 50.1°F10.1°C 43.2°F6.2°C 77% 5.8 mph NNW9.3 kmh NNW 6.9 mph11.1 kmh 30.32 in1026.8 mb - 0.00 in0.0 mm 0.00 in0.0 mm
01:00 AM 49.6°F9.8°C 43.0°F6.1°C 78% 3.5 mph NW5.6 kmh NW 6.9 mph11.1 kmh 30.32 in1026.8 mb - 0.00 in0.0 mm 0.00 in0.0 mm
01:30 AM 48.6°F9.2°C 43.0°F6.1°C 81% 5.8 mph NW9.3 kmh NW 6.9 mph11.1 kmh 30.32 in1026.8 mb - 0.00 in0.0 mm 0.00 in0.0 mm
02:00 AM 47.6°F8.7°C 42.7°F5.9°C 83% 2.3 mph NNW3.7 kmh NNW 4.6 mph7.4 kmh 30.32 in1026.8 mb - 0.00 in0.0 mm 0.00 in0.0 mm
02:30 AM 47.0°F8.3°C 42.7°F5.9°C 85% 2.3 mph NW3.7 kmh NW 3.5 mph5.6 kmh 30.32 in1026.8 mb - 0.00 in0.0 mm 0.00 in0.0 mm
03:00 AM 46.0°F7.8°C 42.6°F5.9°C 88% 2.3 mph NW3.7 kmh NW 5.8 mph9.3 kmh 30.32 in1026.8 mb - 0.00 in0.0 mm 0.00 in0.0 mm
03:30 AM 45.7°F7.6°C 42.6°F5.9°C 89% 3.5 mph NNW5.6 kmh NNW 4.6 mph7.4 kmh 30.32 in1026.8 mb - 0.00 in0.0 mm 0.00 in0.0 mm
04:00 AM 45.1°F7.3°C 42.3°F5.7°C 90% 2.3 mph NW3.7 kmh NW 4.6 mph7.4 kmh 30.33 in1027.1 mb - 0.00 in0.0 mm 0.00 in0.0 mm
04:30 AM 44.8°F7.1°C 42.3°F5.7°C 91% 4.6 mph NW7.4 kmh NW 8.1 mph13.0 kmh 30.32 in1026.8 mb - 0.00 in0.0 mm 0.00 in0.0 mm
05:00 AM 45.2°F7.3°C 42.4°F5.8°C 90% 4.6 mph NNW7.4 kmh NNW 8.1 mph13.0 kmh 30.31 in1026.4 mb - 0.00 in0.0 mm 0.00 in0.0 mm
05:30 AM 45.2°F7.3°C 42.2°F5.7°C 89% 5.8 mph NW9.3 kmh NW 11.5 mph18.5 kmh 30.31 in1026.4 mb - 0.00 in0.0 mm 0.00 in0.0 mm
06:00 AM 45.5°F7.5°C 41.9°F5.5°C 87% 4.6 mph NNW7.4 kmh NNW 6.9 mph11.1 kmh 30.30 in1026.1 mb - 0.00 in0.0 mm 0.00 in0.0 mm
06:30 AM 46.0°F7.8°C 42.0°F5.6°C 86% 5.8 mph NW9.3 kmh NW 8.1 mph13.0 kmh 30.30 in1026.1 mb - 0.00 in0.0 mm 0.00 in0.0 mm
07:00 AM 46.5°F8.1°C 41.9°F5.5°C 84% 6.9 mph NNW11.1 kmh NNW 11.5 mph18.5 kmh 30.31 in1026.4 mb - 0.00 in0.0 mm 0.00 in0.0 mm
07:30 AM 47.1°F8.4°C 41.9°F5.5°C 82% 6.9 mph NW11.1 kmh NW 9.2 mph14.8 kmh 30.32 in1026.8 mb - 0.00 in0.0 mm 0.00 in0.0 mm
08:00 AM 48.0°F8.9°C 42.4°F5.8°C 81% 6.9 mph NNW11.1 kmh NNW 10.4 mph16.7 kmh 30.32 in1026.8 mb - 0.00 in0.0 mm 0.00 in0.0 mm
08:30 AM 48.6°F9.2°C 42.7°F5.9°C 80% 3.5 mph NW5.6 kmh NW 6.9 mph11.1 kmh 30.32 in1026.8 mb - 0.00 in0.0 mm 0.00 in0.0 mm
09:00 AM 49.6°F9.8°C 43.4°F6.3°C 79% 4.6 mph NW7.4 kmh NW 11.5 mph18.5 kmh 30.30 in1026.1 mb - 0.00 in0.0 mm 0.00 in0.0 mm
09:30 AM 50.7°F10.4°C 43.1°F6.2°C 75% 8.1 mph NNW13.0 kmh NNW 9.2 mph14.8 kmh 30.30 in1026.1 mb - 0.00 in0.0 mm 0.00 in0.0 mm
10:00 AM 53.1°F11.7°C 43.6°F6.4°C 70% 8.1 mph NNW13.0 kmh NNW 12.7 mph20.4 kmh 30.29 in1025.7 mb - 0.00 in0.0 mm 0.00 in0.0 mm
10:30 AM 55.7°F13.2°C 43.3°F6.3°C 63% 9.2 mph NNW14.8 kmh NNW 13.8 mph22.2 kmh 30.27 in1025.1 mb - 0.00 in0.0 mm 0.00 in0.0 mm
11:00 AM 57.2°F14.0°C 40.2°F4.6°C 53% 10.4 mph N16.7 kmh N 19.6 mph31.5 kmh 30.27 in1025.1 mb - 0.00 in0.0 mm 0.00 in0.0 mm
11:30 AM 58.0°F14.4°C 41.4°F5.2°C 54% 6.9 mph N11.1 kmh N 17.3 mph27.8 kmh 30.25 in1024.4 mb - 0.00 in0.0 mm 0.00 in0.0 mm
12:00 PM 59.0°F15.0°C 41.4°F5.2°C 52% 8.1 mph N13.0 kmh N 11.5 mph18.5 kmh 30.25 in1024.4 mb - 0.00 in0.0 mm 0.00 in0.0 mm
12:30 PM 59.5°F15.3°C 41.3°F5.2°C 51% 6.9 mph NNW11.1 kmh NNW 12.7 mph20.4 kmh 30.25 in1024.4 mb - 0.00 in0.0 mm 0.00 in0.0 mm
01:00 PM 59.3°F15.2°C 40.7°F4.8°C 50% 5.8 mph N9.3 kmh N 11.5 mph18.5 kmh 30.24 in1024.0 mb - 0.00 in0.0 mm 0.00 in0.0 mm
01:30 PM 59.8°F15.4°C 40.6°F4.8°C 49% 5.8 mph N9.3 kmh N 8.1 mph13.0 kmh 30.23 in1023.7 mb - 0.00 in0.0 mm 0.00 in0.0 mm
02:00 PM 60.4°F15.8°C 40.6°F4.8°C 48% 6.9 mph N11.1 kmh N 12.7 mph20.4 kmh 30.22 in1023.4 mb - 0.00 in0.0 mm 0.00 in0.0 mm
02:30 PM 60.6°F15.9°C 40.8°F4.9°C 48% 5.8 mph NNW9.3 kmh NNW 11.5 mph18.5 kmh 30.22 in1023.4 mb - 0.00 in0.0 mm 0.00 in0.0 mm
03:00 PM 60.4°F15.8°C 40.1°F4.5°C 47% 4.6 mph N7.4 kmh N 8.1 mph13.0 kmh 30.21 in1023.0 mb - 0.00 in0.0 mm 0.00 in0.0 mm
03:30 PM 59.8°F15.4°C 39.5°F4.2°C 47% 9.2 mph NNW14.8 kmh NNW 13.8 mph22.2 kmh 30.20 in1022.7 mb - 0.00 in0.0 mm 0.00 in0.0 mm
04:00 PM 59.3°F15.2°C 40.7°F4.8°C 50% 6.9 mph NNW11.1 kmh NNW 8.1 mph13.0 kmh 30.20 in1022.7 mb - 0.00 in0.0 mm 0.00 in0.0 mm
04:30 PM 58.7°F14.8°C 41.1°F5.1°C 52% 9.2 mph NNW14.8 kmh NNW 13.8 mph22.2 kmh 30.20 in1022.7 mb - 0.00 in0.0 mm 0.00 in0.0 mm
05:00 PM 58.4°F14.7°C 42.3°F5.7°C 55% 5.8 mph NW9.3 kmh NW 8.1 mph13.0 kmh 30.19 in1022.4 mb - 0.00 in0.0 mm 0.00 in0.0 mm
05:30 PM 58.0°F14.4°C 42.8°F6.0°C 57% 4.6 mph N7.4 kmh N 10.4 mph16.7 kmh 30.20 in1022.7 mb - 0.00 in0.0 mm 0.00 in0.0 mm
06:00 PM 57.6°F14.2°C 42.9°F6.1°C 58% 6.9 mph NNW11.1 kmh NNW 8.1 mph13.0 kmh 30.20 in1022.7 mb - 0.00 in0.0 mm 0.00 in0.0 mm
06:30 PM 57.2°F14.0°C 43.9°F6.6°C 61% 3.5 mph N5.6 kmh N 4.6 mph7.4 kmh 30.19 in1022.4 mb - 0.00 in0.0 mm 0.00 in0.0 mm
07:00 PM 57.2°F14.0°C 44.3°F6.8°C 62% 4.6 mph N7.4 kmh N 9.2 mph14.8 kmh 30.18 in1022.0 mb - 0.00 in0.0 mm 0.00 in0.0 mm
07:30 PM 56.9°F13.8°C 44.0°F6.7°C 62% 5.8 mph N9.3 kmh N 11.5 mph18.5 kmh 30.18 in1022.0 mb - 0.00 in0.0 mm 0.00 in0.0 mm
08:00 PM 56.5°F13.6°C 43.6°F6.4°C 62% 4.6 mph N7.4 kmh N 6.9 mph11.1 kmh 30.18 in1022.0 mb - 0.00 in0.0 mm 0.00 in0.0 mm
08:30 PM 55.7°F13.2°C 44.5°F6.9°C 66% 4.6 mph N7.4 kmh N 9.2 mph14.8 kmh 30.17 in1021.7 mb - 0.00 in0.0 mm 0.00 in0.0 mm
09:00 PM 55.0°F12.8°C 44.6°F7.0°C 68% 5.8 mph NNW9.3 kmh NNW 12.7 mph20.4 kmh 30.17 in1021.7 mb - 0.00 in0.0 mm 0.00 in0.0 mm
09:30 PM 54.4°F12.4°C 45.6°F7.6°C 72% 5.8 mph N9.3 kmh N 8.1 mph13.0 kmh 30.16 in1021.3 mb - 0.00 in0.0 mm 0.00 in0.0 mm
10:00 PM 53.8°F12.1°C 45.7°F7.6°C 74% 3.5 mph NNW5.6 kmh NNW 6.9 mph11.1 kmh 30.15 in1021.0 mb - 0.00 in0.0 mm 0.00 in0.0 mm
10:30 PM 53.2°F11.8°C 46.9°F8.3°C 79% 4.6 mph NNW7.4 kmh NNW 5.8 mph9.3 kmh 30.13 in1020.3 mb - 0.00 in0.0 mm 0.00 in0.0 mm
11:00 PM 52.8°F11.6°C 47.1°F8.4°C 81% 6.9 mph NNW11.1 kmh NNW 8.1 mph13.0 kmh 30.12 in1020.0 mb - 0.00 in0.0 mm 0.00 in0.0 mm
11:30 PM 52.3°F11.3°C 47.3°F8.5°C 83% 5.8 mph N9.3 kmh N 11.5 mph18.5 kmh 30.11 in1019.6 mb - 0.00 in0.0 mm 0.00 in0.0 mm